• Join FlightAware (Why Join?)
  • Login
  • US Flag 
11:07AM EST


 

Airport Tracker/Info


-or-


 

Live Flight TrackerFlight Track Log ✈ SET1695 ✈ 12-Feb-2014 ✈ RJOO / ITM - RJSF / FKS

Flight Track Log - Related Links

Times and Time Zones

All times are in EST time to prevent confusion due to time zone crossing. See the SET1695 flight status page for this flight to view local times or setup timezone preferences in your user account.

Time Position Orientation Groundspeed Altitude Reporting Facility
EST Latitude Longitude Course Direction KTS MPH feet Rate Location/Type
12:57AM 34.9318 135.7176 57° Northeast  Level Estimated
12:58AM 34.9804 135.8110 58° Northeast  Level Estimated
12:59AM 35.0289 135.9044 58° Northeast  Level Estimated
01:00AM 35.0773 135.9980 58° Northeast  Level Estimated
01:01AM 35.1257 136.0917 58° Northeast  Level Estimated
01:02AM 35.1740 136.1855 58° Northeast  Level Estimated
01:03AM 35.2223 136.2794 58° Northeast  Level Estimated
01:04AM 35.2704 136.3734 58° Northeast  Level Estimated
01:05AM 35.3185 136.4675 58° Northeast  Level Estimated
01:06AM 35.3665 136.5618 58° Northeast  Level Estimated
01:07AM 35.4145 136.6561 58° Northeast  Level Estimated
01:08AM 35.4623 136.7506 58° Northeast  Level Estimated
01:09AM 35.5102 136.8452 58° Northeast  Level Estimated
01:10AM 35.5579 136.9399 58° Northeast  Level Estimated
01:11AM 35.6055 137.0347 58° Northeast  Level Estimated
01:12AM 35.6531 137.1296 58° Northeast  Level Estimated
01:13AM 35.7006 137.2246 58° Northeast  Level Estimated
01:14AM 35.7480 137.3197 58° Northeast  Level Estimated
01:15AM 35.7954 137.4150 58° Northeast  Level Estimated
01:16AM 35.8427 137.5104 59° Northeast  Level Estimated
01:17AM 35.8899 137.6059 59° Northeast  Level Estimated
01:18AM 35.9370 137.7015 59° Northeast  Level Estimated
01:19AM 35.9840 137.7972 59° Northeast  Level Estimated
01:20AM 36.0310 137.8930 59° Northeast  Level Estimated
01:21AM 36.0779 137.9889 59° Northeast  Level Estimated
01:22AM 36.1247 138.0850 59° Northeast  Level Estimated
01:23AM 36.1715 138.1812 59° Northeast  Level Estimated
01:24AM 36.2181 138.2774 59° Northeast  Level Estimated
01:25AM 36.2647 138.3738 59° Northeast  Level Estimated
01:26AM 36.3112 138.4704 59° Northeast  Level Estimated
01:27AM 36.3577 138.5670 59° Northeast  Level Estimated
01:28AM 36.4040 138.6637 59° Northeast  Level Estimated
01:29AM 36.4503 138.7606 59° Northeast  Level Estimated
01:30AM 36.4965 138.8575 59° Northeast  Level Estimated
01:31AM 36.5426 138.9546 59° Northeast  Level Estimated
01:32AM 36.5887 139.0518 59° Northeast  Level Estimated
01:33AM 36.6346 139.1492 60° Northeast  Level Estimated
01:34AM 36.6805 139.2466 60° Northeast  Level Estimated
01:35AM 36.7263 139.3442 60° Northeast  Level Estimated
01:36AM 36.7720 139.4418 60° Northeast  Level Estimated
01:37AM 36.8177 139.5396 60° Northeast  Level Estimated
01:38AM 36.8632 139.6375 60° Northeast  Level Estimated
01:39AM 36.9087 139.7355 60° Northeast  Level Estimated
01:40AM 36.9541 139.8337 60° Northeast  Level Estimated
01:41AM 36.9994 139.9319 60° Northeast  Level Estimated
01:42AM 37.0447 140.0303 60° Northeast  Level Estimated
01:43AM 37.0898 140.1288 60° Northeast  Level Estimated
01:44AM 37.1349 140.2274 60° Northeast  Level Estimated
01:45AM 37.1799 140.3261 60° Northeast  Level Estimated
01:46AM 37.2248 140.4250 60° Northeast  Level Estimated
01:47AM 37.2274 140.4307 60° Northeast  Level Estimated
01:48AM 37.2274 140.4307 302° West  Level Estimated
01:49AM 37.2274 140.4307 302° West  Level Estimated
01:50AM 37.2274 140.4307 302° West  Level Estimated
01:51AM 37.2274 140.4307 302° West  Level Estimated
01:52AM 37.2274 140.4307 302° West  Level Estimated
01:53AM 37.2274 140.4307 302° West  Level Estimated
01:54AM 37.2274 140.4307 302° West  Level Estimated
01:55AM 37.2274 140.4307 302° West  Level Estimated
01:56AM 37.2274 140.4307 302° West  Level Estimated
01:57AM 37.2274 140.4307 302° West  Level Estimated
01:58AM 37.2274 140.4307 302° West  Level Estimated